sensor_id;sensor_type;location;lat;lon;timestamp;P1;durP1;ratioP1;P2;durP2;ratioP2
44348;SDS011;30068;50.986;4.564;2023-09-07T00:01:43;3.53;;;1.35;;
44348;SDS011;30068;50.986;4.564;2023-09-07T00:04:08;3.78;;;1.40;;
44348;SDS011;30068;50.986;4.564;2023-09-07T00:06:34;3.67;;;1.40;;
44348;SDS011;30068;50.986;4.564;2023-09-07T00:08:59;4.95;;;1.65;;
44348;SDS011;30068;50.986;4.564;2023-09-07T00:11:25;2.97;;;1.40;;
44348;SDS011;30068;50.986;4.564;2023-09-07T00:13:51;3.67;;;1.77;;
44348;SDS011;30068;50.986;4.564;2023-09-07T00:16:16;2.70;;;1.20;;
44348;SDS011;30068;50.986;4.564;2023-09-07T00:18:41;4.00;;;1.58;;
44348;SDS011;30068;50.986;4.564;2023-09-07T00:21:07;4.30;;;1.60;;
44348;SDS011;30068;50.986;4.564;2023-09-07T00:23:32;3.80;;;1.52;;
44348;SDS011;30068;50.986;4.564;2023-09-07T00:25:58;4.10;;;1.30;;
44348;SDS011;30068;50.986;4.564;2023-09-07T00:28:23;3.40;;;1.52;;
44348;SDS011;30068;50.986;4.564;2023-09-07T00:30:48;3.47;;;1.65;;
44348;SDS011;30068;50.986;4.564;2023-09-07T00:33:14;5.40;;;1.65;;
44348;SDS011;30068;50.986;4.564;2023-09-07T00:35:39;2.78;;;1.17;;
44348;SDS011;30068;50.986;4.564;2023-09-07T00:38:05;4.15;;;1.60;;
44348;SDS011;30068;50.986;4.564;2023-09-07T00:40:30;3.42;;;1.70;;
44348;SDS011;30068;50.986;4.564;2023-09-07T00:42:55;4.55;;;1.58;;
44348;SDS011;30068;50.986;4.564;2023-09-07T00:45:21;3.22;;;1.50;;
44348;SDS011;30068;50.986;4.564;2023-09-07T00:47:47;4.25;;;1.73;;
44348;SDS011;30068;50.986;4.564;2023-09-07T00:50:12;4.30;;;1.30;;
44348;SDS011;30068;50.986;4.564;2023-09-07T00:52:39;3.55;;;1.50;;
44348;SDS011;30068;50.986;4.564;2023-09-07T00:55:07;4.43;;;1.40;;
44348;SDS011;30068;50.986;4.564;2023-09-07T00:57:33;3.10;;;1.30;;
44348;SDS011;30068;50.986;4.564;2023-09-07T00:59:59;3.08;;;1.40;;
44348;SDS011;30068;50.986;4.564;2023-09-07T01:02:24;3.55;;;1.40;;
44348;SDS011;30068;50.986;4.564;2023-09-07T01:04:51;3.00;;;1.40;;
44348;SDS011;30068;50.986;4.564;2023-09-07T01:07:18;5.88;;;1.50;;
44348;SDS011;30068;50.986;4.564;2023-09-07T01:09:56;3.25;;;1.50;;
44348;SDS011;30068;50.986;4.564;2023-09-07T01:12:24;3.00;;;1.30;;
44348;SDS011;30068;50.986;4.564;2023-09-07T01:14:50;3.08;;;1.38;;
44348;SDS011;30068;50.986;4.564;2023-09-07T01:17:15;3.03;;;1.50;;
44348;SDS011;30068;50.986;4.564;2023-09-07T01:19:40;2.90;;;1.27;;
44348;SDS011;30068;50.986;4.564;2023-09-07T01:22:07;3.00;;;1.30;;
44348;SDS011;30068;50.986;4.564;2023-09-07T01:24:33;3.22;;;1.52;;
44348;SDS011;30068;50.986;4.564;2023-09-07T01:27:01;4.35;;;1.30;;
44348;SDS011;30068;50.986;4.564;2023-09-07T01:29:28;5.35;;;1.45;;
44348;SDS011;30068;50.986;4.564;2023-09-07T01:31:54;2.80;;;1.25;;
44348;SDS011;30068;50.986;4.564;2023-09-07T01:34:20;2.83;;;1.30;;
44348;SDS011;30068;50.986;4.564;2023-09-07T01:36:46;3.65;;;1.42;;
44348;SDS011;30068;50.986;4.564;2023-09-07T01:39:11;2.95;;;1.50;;
44348;SDS011;30068;50.986;4.564;2023-09-07T01:41:37;2.78;;;1.40;;
44348;SDS011;30068;50.986;4.564;2023-09-07T01:44:02;3.00;;;1.30;;
44348;SDS011;30068;50.986;4.564;2023-09-07T01:46:28;2.40;;;1.10;;
44348;SDS011;30068;50.986;4.564;2023-09-07T01:48:53;2.90;;;1.33;;
44348;SDS011;30068;50.986;4.564;2023-09-07T01:51:19;2.70;;;1.20;;
44348;SDS011;30068;50.986;4.564;2023-09-07T01:53:46;3.40;;;1.42;;
44348;SDS011;30068;50.986;4.564;2023-09-07T01:56:13;3.20;;;1.52;;
44348;SDS011;30068;50.986;4.564;2023-09-07T01:58:39;2.92;;;1.20;;
44348;SDS011;30068;50.986;4.564;2023-09-07T02:01:06;2.95;;;1.30;;
44348;SDS011;30068;50.986;4.564;2023-09-07T02:03:31;2.83;;;1.23;;
44348;SDS011;30068;50.986;4.564;2023-09-07T02:05:56;2.67;;;1.23;;
44348;SDS011;30068;50.986;4.564;2023-09-07T02:08:22;3.10;;;1.30;;
44348;SDS011;30068;50.986;4.564;2023-09-07T02:10:48;2.90;;;1.30;;
44348;SDS011;30068;50.986;4.564;2023-09-07T02:13:13;3.00;;;1.40;;
44348;SDS011;30068;50.986;4.564;2023-09-07T02:15:38;2.70;;;1.30;;
44348;SDS011;30068;50.986;4.564;2023-09-07T02:18:04;3.40;;;1.55;;
44348;SDS011;30068;50.986;4.564;2023-09-07T02:20:31;3.00;;;1.20;;
44348;SDS011;30068;50.986;4.564;2023-09-07T02:22:59;3.45;;;1.50;;
44348;SDS011;30068;50.986;4.564;2023-09-07T02:25:25;3.10;;;1.50;;
44348;SDS011;30068;50.986;4.564;2023-09-07T02:27:50;3.13;;;1.38;;
44348;SDS011;30068;50.986;4.564;2023-09-07T02:30:16;3.22;;;1.50;;
44348;SDS011;30068;50.986;4.564;2023-09-07T02:32:42;3.13;;;1.50;;
44348;SDS011;30068;50.986;4.564;2023-09-07T02:35:08;2.97;;;1.38;;
44348;SDS011;30068;50.986;4.564;2023-09-07T02:37:35;3.60;;;1.52;;
44348;SDS011;30068;50.986;4.564;2023-09-07T02:40:01;3.88;;;1.50;;
44348;SDS011;30068;50.986;4.564;2023-09-07T02:42:26;2.75;;;1.35;;
44348;SDS011;30068;50.986;4.564;2023-09-07T02:44:51;3.45;;;1.58;;
44348;SDS011;30068;50.986;4.564;2023-09-07T02:47:17;3.20;;;1.50;;
44348;SDS011;30068;50.986;4.564;2023-09-07T02:49:42;3.03;;;1.40;;
44348;SDS011;30068;50.986;4.564;2023-09-07T02:52:08;2.85;;;1.35;;
44348;SDS011;30068;50.986;4.564;2023-09-07T02:54:33;4.82;;;1.63;;
44348;SDS011;30068;50.986;4.564;2023-09-07T02:56:58;2.97;;;1.40;;
44348;SDS011;30068;50.986;4.564;2023-09-07T02:59:24;4.40;;;1.50;;
44348;SDS011;30068;50.986;4.564;2023-09-07T03:01:49;2.92;;;1.40;;
44348;SDS011;30068;50.986;4.564;2023-09-07T03:04:15;3.25;;;1.60;;
44348;SDS011;30068;50.986;4.564;2023-09-07T03:06:40;3.28;;;1.40;;
44348;SDS011;30068;50.986;4.564;2023-09-07T03:09:05;2.90;;;1.35;;
44348;SDS011;30068;50.986;4.564;2023-09-07T03:11:34;3.25;;;1.40;;
44348;SDS011;30068;50.986;4.564;2023-09-07T03:14:00;2.72;;;1.27;;
44348;SDS011;30068;50.986;4.564;2023-09-07T03:16:26;2.78;;;1.30;;
44348;SDS011;30068;50.986;4.564;2023-09-07T03:18:51;3.38;;;1.40;;
44348;SDS011;30068;50.986;4.564;2023-09-07T03:21:17;2.97;;;1.40;;
44348;SDS011;30068;50.986;4.564;2023-09-07T03:23:42;3.05;;;1.27;;
44348;SDS011;30068;50.986;4.564;2023-09-07T03:26:10;3.08;;;1.45;;
44348;SDS011;30068;50.986;4.564;2023-09-07T03:28:35;3.00;;;1.40;;
44348;SDS011;30068;50.986;4.564;2023-09-07T03:31:01;3.13;;;1.33;;
44348;SDS011;30068;50.986;4.564;2023-09-07T03:33:26;3.50;;;1.70;;
44348;SDS011;30068;50.986;4.564;2023-09-07T03:35:52;3.20;;;1.52;;
44348;SDS011;30068;50.986;4.564;2023-09-07T03:38:17;3.17;;;1.50;;
44348;SDS011;30068;50.986;4.564;2023-09-07T03:40:43;3.70;;;1.50;;
44348;SDS011;30068;50.986;4.564;2023-09-07T03:43:09;3.38;;;1.50;;
44348;SDS011;30068;50.986;4.564;2023-09-07T03:45:34;4.03;;;1.55;;
44348;SDS011;30068;50.986;4.564;2023-09-07T03:48:00;3.13;;;1.55;;
44348;SDS011;30068;50.986;4.564;2023-09-07T03:50:25;3.70;;;1.55;;
44348;SDS011;30068;50.986;4.564;2023-09-07T03:52:50;3.55;;;1.73;;
44348;SDS011;30068;50.986;4.564;2023-09-07T03:55:16;2.83;;;1.40;;
44348;SDS011;30068;50.986;4.564;2023-09-07T03:57:41;5.60;;;1.80;;
44348;SDS011;30068;50.986;4.564;2023-09-07T04:00:07;3.80;;;1.50;;
44348;SDS011;30068;50.986;4.564;2023-09-07T04:02:33;3.03;;;1.30;;
44348;SDS011;30068;50.986;4.564;2023-09-07T04:04:59;4.30;;;1.42;;
44348;SDS011;30068;50.986;4.564;2023-09-07T04:07:27;3.30;;;1.60;;
44348;SDS011;30068;50.986;4.564;2023-09-07T04:09:52;3.70;;;1.63;;
44348;SDS011;30068;50.986;4.564;2023-09-07T04:12:18;3.50;;;1.65;;
44348;SDS011;30068;50.986;4.564;2023-09-07T04:14:43;3.03;;;1.35;;
44348;SDS011;30068;50.986;4.564;2023-09-07T04:17:09;4.57;;;1.77;;
44348;SDS011;30068;50.986;4.564;2023-09-07T04:19:35;3.85;;;1.77;;
44348;SDS011;30068;50.986;4.564;2023-09-07T04:22:00;3.28;;;1.60;;
44348;SDS011;30068;50.986;4.564;2023-09-07T04:24:26;3.40;;;1.60;;
44348;SDS011;30068;50.986;4.564;2023-09-07T04:26:58;3.65;;;1.63;;
44348;SDS011;30068;50.986;4.564;2023-09-07T04:29:25;3.65;;;1.50;;
44348;SDS011;30068;50.986;4.564;2023-09-07T04:31:50;3.08;;;1.52;;
44348;SDS011;30068;50.986;4.564;2023-09-07T04:34:16;4.40;;;1.65;;
44348;SDS011;30068;50.986;4.564;2023-09-07T04:36:41;3.00;;;1.30;;
44348;SDS011;30068;50.986;4.564;2023-09-07T04:39:06;4.07;;;1.63;;
44348;SDS011;30068;50.986;4.564;2023-09-07T04:41:32;3.08;;;1.50;;
44348;SDS011;30068;50.986;4.564;2023-09-07T04:43:57;3.17;;;1.50;;
44348;SDS011;30068;50.986;4.564;2023-09-07T04:46:23;3.67;;;1.83;;
44348;SDS011;30068;50.986;4.564;2023-09-07T04:48:48;3.42;;;1.60;;
44348;SDS011;30068;50.986;4.564;2023-09-07T04:51:14;3.20;;;1.40;;
44348;SDS011;30068;50.986;4.564;2023-09-07T04:53:39;3.53;;;1.70;;
44348;SDS011;30068;50.986;4.564;2023-09-07T04:56:05;3.17;;;1.63;;
44348;SDS011;30068;50.986;4.564;2023-09-07T04:58:36;3.25;;;1.63;;
44348;SDS011;30068;50.986;4.564;2023-09-07T05:01:04;3.10;;;1.50;;
44348;SDS011;30068;50.986;4.564;2023-09-07T05:03:31;3.70;;;1.55;;
44348;SDS011;30068;50.986;4.564;2023-09-07T05:05:56;3.40;;;1.58;;
44348;SDS011;30068;50.986;4.564;2023-09-07T05:08:22;3.30;;;1.60;;
44348;SDS011;30068;50.986;4.564;2023-09-07T05:10:54;3.58;;;1.45;;
44348;SDS011;30068;50.986;4.564;2023-09-07T05:13:23;4.88;;;1.77;;
44348;SDS011;30068;50.986;4.564;2023-09-07T05:15:49;3.20;;;1.70;;
44348;SDS011;30068;50.986;4.564;2023-09-07T05:18:16;3.22;;;1.60;;
44348;SDS011;30068;50.986;4.564;2023-09-07T05:20:41;3.08;;;1.45;;
44348;SDS011;30068;50.986;4.564;2023-09-07T05:23:07;4.22;;;1.60;;
44348;SDS011;30068;50.986;4.564;2023-09-07T05:25:32;3.38;;;1.52;;
44348;SDS011;30068;50.986;4.564;2023-09-07T05:27:58;3.03;;;1.45;;
44348;SDS011;30068;50.986;4.564;2023-09-07T05:30:23;3.35;;;1.60;;
44348;SDS011;30068;50.986;4.564;2023-09-07T05:32:48;2.88;;;1.50;;
44348;SDS011;30068;50.986;4.564;2023-09-07T05:35:14;2.85;;;1.45;;
44348;SDS011;30068;50.986;4.564;2023-09-07T05:37:41;3.15;;;1.50;;
44348;SDS011;30068;50.986;4.564;2023-09-07T05:40:07;3.30;;;1.60;;
44348;SDS011;30068;50.986;4.564;2023-09-07T05:42:33;2.90;;;1.40;;
44348;SDS011;30068;50.986;4.564;2023-09-07T05:44:58;2.90;;;1.50;;
44348;SDS011;30068;50.986;4.564;2023-09-07T05:47:24;3.88;;;1.65;;
44348;SDS011;30068;50.986;4.564;2023-09-07T05:49:51;3.70;;;1.70;;
44348;SDS011;30068;50.986;4.564;2023-09-07T05:52:16;3.15;;;1.50;;
44348;SDS011;30068;50.986;4.564;2023-09-07T05:54:42;3.47;;;1.70;;
44348;SDS011;30068;50.986;4.564;2023-09-07T05:57:07;3.08;;;1.50;;
44348;SDS011;30068;50.986;4.564;2023-09-07T05:59:33;3.47;;;1.70;;
44348;SDS011;30068;50.986;4.564;2023-09-07T06:01:58;3.13;;;1.58;;
44348;SDS011;30068;50.986;4.564;2023-09-07T06:04:23;3.13;;;1.50;;
44348;SDS011;30068;50.986;4.564;2023-09-07T06:06:49;3.15;;;1.60;;
44348;SDS011;30068;50.986;4.564;2023-09-07T06:09:14;3.25;;;1.60;;
44348;SDS011;30068;50.986;4.564;2023-09-07T06:11:40;2.88;;;1.42;;
44348;SDS011;30068;50.986;4.564;2023-09-07T06:14:05;3.63;;;1.90;;
44348;SDS011;30068;50.986;4.564;2023-09-07T06:16:30;3.00;;;1.50;;
44348;SDS011;30068;50.986;4.564;2023-09-07T06:18:56;3.63;;;1.70;;
44348;SDS011;30068;50.986;4.564;2023-09-07T06:21:21;2.95;;;1.50;;
44348;SDS011;30068;50.986;4.564;2023-09-07T06:23:47;3.80;;;1.60;;
44348;SDS011;30068;50.986;4.564;2023-09-07T06:26:12;3.58;;;1.40;;
44348;SDS011;30068;50.986;4.564;2023-09-07T06:28:39;3.47;;;1.42;;
44348;SDS011;30068;50.986;4.564;2023-09-07T06:31:04;3.47;;;1.75;;
44348;SDS011;30068;50.986;4.564;2023-09-07T06:33:30;3.60;;;1.70;;
44348;SDS011;30068;50.986;4.564;2023-09-07T06:35:55;3.65;;;1.70;;
44348;SDS011;30068;50.986;4.564;2023-09-07T06:38:25;3.47;;;1.58;;
44348;SDS011;30068;50.986;4.564;2023-09-07T06:40:51;3.35;;;1.50;;
44348;SDS011;30068;50.986;4.564;2023-09-07T06:43:16;3.33;;;1.60;;
44348;SDS011;30068;50.986;4.564;2023-09-07T06:45:42;3.47;;;1.77;;
44348;SDS011;30068;50.986;4.564;2023-09-07T06:48:07;3.08;;;1.50;;
44348;SDS011;30068;50.986;4.564;2023-09-07T06:50:32;3.10;;;1.60;;
44348;SDS011;30068;50.986;4.564;2023-09-07T06:52:58;3.40;;;1.60;;
44348;SDS011;30068;50.986;4.564;2023-09-07T06:55:23;3.00;;;1.50;;
44348;SDS011;30068;50.986;4.564;2023-09-07T06:57:49;3.13;;;1.58;;
44348;SDS011;30068;50.986;4.564;2023-09-07T07:00:14;2.80;;;1.30;;
44348;SDS011;30068;50.986;4.564;2023-09-07T07:02:40;3.47;;;1.70;;
44348;SDS011;30068;50.986;4.564;2023-09-07T07:05:05;3.38;;;1.70;;
44348;SDS011;30068;50.986;4.564;2023-09-07T07:07:31;3.33;;;1.63;;
44348;SDS011;30068;50.986;4.564;2023-09-07T07:09:57;3.00;;;1.48;;
44348;SDS011;30068;50.986;4.564;2023-09-07T07:12:22;5.85;;;1.67;;
44348;SDS011;30068;50.986;4.564;2023-09-07T07:14:48;3.50;;;1.90;;
44348;SDS011;30068;50.986;4.564;2023-09-07T07:17:13;3.20;;;1.67;;
44348;SDS011;30068;50.986;4.564;2023-09-07T07:19:39;3.63;;;1.60;;
44348;SDS011;30068;50.986;4.564;2023-09-07T07:22:05;4.00;;;1.50;;
44348;SDS011;30068;50.986;4.564;2023-09-07T07:24:30;2.90;;;1.38;;
44348;SDS011;30068;50.986;4.564;2023-09-07T07:26:55;2.92;;;1.50;;
44348;SDS011;30068;50.986;4.564;2023-09-07T07:29:21;3.45;;;1.60;;
44348;SDS011;30068;50.986;4.564;2023-09-07T07:31:46;2.92;;;1.50;;
44348;SDS011;30068;50.986;4.564;2023-09-07T07:34:12;3.10;;;1.40;;
44348;SDS011;30068;50.986;4.564;2023-09-07T07:36:38;3.53;;;1.70;;
44348;SDS011;30068;50.986;4.564;2023-09-07T07:39:03;3.28;;;1.70;;
44348;SDS011;30068;50.986;4.564;2023-09-07T07:41:32;4.32;;;1.52;;
44348;SDS011;30068;50.986;4.564;2023-09-07T07:43:57;2.80;;;1.30;;
44348;SDS011;30068;50.986;4.564;2023-09-07T07:46:23;2.92;;;1.50;;
44348;SDS011;30068;50.986;4.564;2023-09-07T07:48:49;3.30;;;1.70;;
44348;SDS011;30068;50.986;4.564;2023-09-07T07:51:14;3.00;;;1.50;;
44348;SDS011;30068;50.986;4.564;2023-09-07T07:53:39;3.75;;;1.50;;
44348;SDS011;30068;50.986;4.564;2023-09-07T07:56:05;3.28;;;1.58;;
44348;SDS011;30068;50.986;4.564;2023-09-07T07:58:30;3.25;;;1.70;;
44348;SDS011;30068;50.986;4.564;2023-09-07T08:00:56;3.50;;;1.75;;
44348;SDS011;30068;50.986;4.564;2023-09-07T08:03:23;3.10;;;1.58;;
44348;SDS011;30068;50.986;4.564;2023-09-07T08:05:49;3.33;;;1.42;;
44348;SDS011;30068;50.986;4.564;2023-09-07T08:08:14;3.60;;;1.60;;
44348;SDS011;30068;50.986;4.564;2023-09-07T08:10:40;3.45;;;1.70;;
44348;SDS011;30068;50.986;4.564;2023-09-07T08:13:06;3.03;;;1.60;;
44348;SDS011;30068;50.986;4.564;2023-09-07T08:15:32;3.40;;;1.60;;
44348;SDS011;30068;50.986;4.564;2023-09-07T08:17:58;3.17;;;1.50;;
44348;SDS011;30068;50.986;4.564;2023-09-07T08:20:27;3.22;;;1.77;;
44348;SDS011;30068;50.986;4.564;2023-09-07T08:22:54;4.72;;;1.80;;
44348;SDS011;30068;50.986;4.564;2023-09-07T08:25:19;4.03;;;1.90;;
44348;SDS011;30068;50.986;4.564;2023-09-07T08:27:45;3.55;;;1.88;;
44348;SDS011;30068;50.986;4.564;2023-09-07T08:30:13;4.15;;;2.03;;
44348;SDS011;30068;50.986;4.564;2023-09-07T08:32:43;4.30;;;2.08;;
44348;SDS011;30068;50.986;4.564;2023-09-07T08:35:10;3.63;;;1.98;;
44348;SDS011;30068;50.986;4.564;2023-09-07T08:37:40;4.32;;;2.13;;
44348;SDS011;30068;50.986;4.564;2023-09-07T08:40:06;5.13;;;2.10;;
44348;SDS011;30068;50.986;4.564;2023-09-07T08:42:36;5.05;;;2.17;;
44348;SDS011;30068;50.986;4.564;2023-09-07T08:45:02;4.35;;;2.17;;
44348;SDS011;30068;50.986;4.564;2023-09-07T08:47:31;4.88;;;2.35;;
44348;SDS011;30068;50.986;4.564;2023-09-07T08:49:58;4.38;;;2.38;;
44348;SDS011;30068;50.986;4.564;2023-09-07T08:52:24;5.15;;;2.80;;
44348;SDS011;30068;50.986;4.564;2023-09-07T08:54:50;5.82;;;2.80;;
44348;SDS011;30068;50.986;4.564;2023-09-07T08:57:17;6.10;;;2.60;;
44348;SDS011;30068;50.986;4.564;2023-09-07T08:59:45;4.65;;;2.58;;
44348;SDS011;30068;50.986;4.564;2023-09-07T09:02:10;5.57;;;2.63;;
44348;SDS011;30068;50.986;4.564;2023-09-07T09:04:36;6.82;;;3.30;;
44348;SDS011;30068;50.986;4.564;2023-09-07T09:07:02;6.18;;;2.70;;
44348;SDS011;30068;50.986;4.564;2023-09-07T09:09:29;6.13;;;3.13;;
44348;SDS011;30068;50.986;4.564;2023-09-07T09:11:55;5.95;;;2.92;;
44348;SDS011;30068;50.986;4.564;2023-09-07T09:14:31;5.20;;;2.80;;
44348;SDS011;30068;50.986;4.564;2023-09-07T09:16:56;5.70;;;2.88;;
44348;SDS011;30068;50.986;4.564;2023-09-07T09:19:43;5.40;;;2.88;;
44348;SDS011;30068;50.986;4.564;2023-09-07T09:22:08;5.10;;;2.90;;
44348;SDS011;30068;50.986;4.564;2023-09-07T09:24:34;6.07;;;3.00;;
44348;SDS011;30068;50.986;4.564;2023-09-07T09:27:00;7.28;;;3.15;;
44348;SDS011;30068;50.986;4.564;2023-09-07T09:29:25;5.68;;;2.80;;
44348;SDS011;30068;50.986;4.564;2023-09-07T09:31:52;9.20;;;3.08;;
44348;SDS011;30068;50.986;4.564;2023-09-07T09:34:18;6.40;;;3.05;;
44348;SDS011;30068;50.986;4.564;2023-09-07T09:36:44;5.25;;;2.85;;
44348;SDS011;30068;50.986;4.564;2023-09-07T09:39:10;5.80;;;3.13;;
44348;SDS011;30068;50.986;4.564;2023-09-07T09:41:46;5.80;;;3.00;;
44348;SDS011;30068;50.986;4.564;2023-09-07T09:44:12;5.68;;;3.30;;
44348;SDS011;30068;50.986;4.564;2023-09-07T09:46:39;5.72;;;3.05;;
44348;SDS011;30068;50.986;4.564;2023-09-07T09:49:07;7.20;;;3.17;;
44348;SDS011;30068;50.986;4.564;2023-09-07T09:51:33;6.55;;;3.15;;
44348;SDS011;30068;50.986;4.564;2023-09-07T09:54:00;5.45;;;3.03;;
44348;SDS011;30068;50.986;4.564;2023-09-07T09:56:27;8.07;;;3.22;;
44348;SDS011;30068;50.986;4.564;2023-09-07T09:58:52;6.97;;;3.58;;
44348;SDS011;30068;50.986;4.564;2023-09-07T10:01:18;5.55;;;3.15;;
44348;SDS011;30068;50.986;4.564;2023-09-07T10:03:47;5.80;;;2.90;;
44348;SDS011;30068;50.986;4.564;2023-09-07T10:11:35;6.30;;;3.08;;
44348;SDS011;30068;50.986;4.564;2023-09-07T10:14:06;5.88;;;2.90;;
44348;SDS011;30068;50.986;4.564;2023-09-07T10:16:45;6.65;;;2.88;;
44348;SDS011;30068;50.986;4.564;2023-09-07T10:19:29;6.10;;;3.10;;
44348;SDS011;30068;50.986;4.564;2023-09-07T10:21:55;5.80;;;2.83;;
44348;SDS011;30068;50.986;4.564;2023-09-07T10:24:28;5.72;;;2.90;;
44348;SDS011;30068;50.986;4.564;2023-09-07T10:26:59;5.50;;;2.83;;
44348;SDS011;30068;50.986;4.564;2023-09-07T10:29:25;5.25;;;2.70;;
44348;SDS011;30068;50.986;4.564;2023-09-07T10:31:51;4.80;;;2.40;;
44348;SDS011;30068;50.986;4.564;2023-09-07T10:34:17;5.93;;;3.08;;
44348;SDS011;30068;50.986;4.564;2023-09-07T10:36:43;7.10;;;3.13;;
44348;SDS011;30068;50.986;4.564;2023-09-07T10:39:09;5.05;;;2.80;;
44348;SDS011;30068;50.986;4.564;2023-09-07T10:41:44;5.05;;;2.80;;
44348;SDS011;30068;50.986;4.564;2023-09-07T10:44:10;5.05;;;2.70;;
44348;SDS011;30068;50.986;4.564;2023-09-07T10:46:35;5.80;;;2.90;;
44348;SDS011;30068;50.986;4.564;2023-09-07T10:49:02;5.80;;;2.42;;
44348;SDS011;30068;50.986;4.564;2023-09-07T10:51:28;6.22;;;2.72;;
44348;SDS011;30068;50.986;4.564;2023-09-07T10:53:54;5.28;;;2.67;;
44348;SDS011;30068;50.986;4.564;2023-09-07T10:56:20;5.90;;;2.80;;
44348;SDS011;30068;50.986;4.564;2023-09-07T10:58:49;5.50;;;3.00;;
44348;SDS011;30068;50.986;4.564;2023-09-07T11:01:18;5.45;;;2.67;;
44348;SDS011;30068;50.986;4.564;2023-09-07T11:03:45;6.03;;;2.80;;
44348;SDS011;30068;50.986;4.564;2023-09-07T11:06:14;4.93;;;2.70;;
44348;SDS011;30068;50.986;4.564;2023-09-07T11:08:48;6.03;;;3.05;;
44348;SDS011;30068;50.986;4.564;2023-09-07T11:11:14;5.63;;;3.00;;
44348;SDS011;30068;50.986;4.564;2023-09-07T11:13:40;5.32;;;2.67;;
44348;SDS011;30068;50.986;4.564;2023-09-07T11:16:08;7.60;;;2.80;;
44348;SDS011;30068;50.986;4.564;2023-09-07T11:18:35;4.85;;;2.45;;
44348;SDS011;30068;50.986;4.564;2023-09-07T11:21:01;7.18;;;2.72;;
44348;SDS011;30068;50.986;4.564;2023-09-07T11:23:29;4.85;;;2.70;;
44348;SDS011;30068;50.986;4.564;2023-09-07T11:26:03;8.27;;;2.55;;
44348;SDS011;30068;50.986;4.564;2023-09-07T11:28:30;4.63;;;2.53;;
44348;SDS011;30068;50.986;4.564;2023-09-07T11:30:56;6.10;;;2.30;;
44348;SDS011;30068;50.986;4.564;2023-09-07T11:33:23;5.45;;;2.45;;
44348;SDS011;30068;50.986;4.564;2023-09-07T11:35:49;5.40;;;2.40;;
44348;SDS011;30068;50.986;4.564;2023-09-07T11:38:16;6.40;;;2.83;;
44348;SDS011;30068;50.986;4.564;2023-09-07T11:40:43;4.65;;;2.50;;
44348;SDS011;30068;50.986;4.564;2023-09-07T11:43:13;5.85;;;2.80;;
44348;SDS011;30068;50.986;4.564;2023-09-07T11:45:45;5.15;;;2.53;;
44348;SDS011;30068;50.986;4.564;2023-09-07T11:48:11;4.30;;;2.42;;
44348;SDS011;30068;50.986;4.564;2023-09-07T11:50:37;6.03;;;2.53;;
44348;SDS011;30068;50.986;4.564;2023-09-07T11:53:04;4.20;;;2.50;;
44348;SDS011;30068;50.986;4.564;2023-09-07T11:55:30;5.72;;;2.70;;
44348;SDS011;30068;50.986;4.564;2023-09-07T11:57:55;54.38;;;5.68;;
44348;SDS011;30068;50.986;4.564;2023-09-07T12:00:21;7.63;;;2.25;;
44348;SDS011;30068;50.986;4.564;2023-09-07T12:02:47;6.97;;;1.80;;
44348;SDS011;30068;50.986;4.564;2023-09-07T12:05:13;4.68;;;1.70;;
44348;SDS011;30068;50.986;4.564;2023-09-07T12:07:40;6.78;;;2.30;;
44348;SDS011;30068;50.986;4.564;2023-09-07T12:10:08;6.10;;;2.15;;
44348;SDS011;30068;50.986;4.564;2023-09-07T12:12:38;8.60;;;2.20;;
44348;SDS011;30068;50.986;4.564;2023-09-07T12:15:05;5.57;;;2.08;;
44348;SDS011;30068;50.986;4.564;2023-09-07T12:17:31;3.50;;;1.80;;
44348;SDS011;30068;50.986;4.564;2023-09-07T12:19:57;4.68;;;1.70;;
44348;SDS011;30068;50.986;4.564;2023-09-07T12:22:23;5.25;;;1.85;;
44348;SDS011;30068;50.986;4.564;2023-09-07T12:24:49;3.63;;;1.80;;
44348;SDS011;30068;50.986;4.564;2023-09-07T12:27:14;3.90;;;1.95;;
44348;SDS011;30068;50.986;4.564;2023-09-07T12:29:40;3.60;;;1.73;;
44348;SDS011;30068;50.986;4.564;2023-09-07T12:32:05;3.83;;;1.85;;
44348;SDS011;30068;50.986;4.564;2023-09-07T12:34:31;4.43;;;1.98;;
44348;SDS011;30068;50.986;4.564;2023-09-07T12:36:56;4.55;;;1.90;;
44348;SDS011;30068;50.986;4.564;2023-09-07T12:39:22;3.72;;;1.80;;
44348;SDS011;30068;50.986;4.564;2023-09-07T12:41:47;3.88;;;2.10;;
44348;SDS011;30068;50.986;4.564;2023-09-07T12:44:13;4.72;;;2.20;;
44348;SDS011;30068;50.986;4.564;2023-09-07T12:46:38;4.88;;;2.00;;
44348;SDS011;30068;50.986;4.564;2023-09-07T12:49:04;4.32;;;2.00;;
44348;SDS011;30068;50.986;4.564;2023-09-07T12:51:29;4.03;;;2.00;;
44348;SDS011;30068;50.986;4.564;2023-09-07T12:53:56;3.90;;;1.90;;
44348;SDS011;30068;50.986;4.564;2023-09-07T12:56:21;4.65;;;2.03;;
44348;SDS011;30068;50.986;4.564;2023-09-07T12:58:47;4.47;;;2.00;;
44348;SDS011;30068;50.986;4.564;2023-09-07T13:01:14;4.05;;;2.00;;
44348;SDS011;30068;50.986;4.564;2023-09-07T13:03:41;4.05;;;1.90;;
44348;SDS011;30068;50.986;4.564;2023-09-07T13:06:07;4.05;;;1.80;;
44348;SDS011;30068;50.986;4.564;2023-09-07T13:08:32;4.00;;;1.95;;
44348;SDS011;30068;50.986;4.564;2023-09-07T13:10:58;4.45;;;2.03;;
44348;SDS011;30068;50.986;4.564;2023-09-07T13:13:24;4.63;;;2.10;;
44348;SDS011;30068;50.986;4.564;2023-09-07T13:15:54;5.05;;;2.10;;
44348;SDS011;30068;50.986;4.564;2023-09-07T13:18:22;4.78;;;2.08;;
44348;SDS011;30068;50.986;4.564;2023-09-07T13:20:47;4.65;;;2.35;;
44348;SDS011;30068;50.986;4.564;2023-09-07T13:23:15;4.00;;;1.98;;
44348;SDS011;30068;50.986;4.564;2023-09-07T13:25:40;5.05;;;1.90;;
44348;SDS011;30068;50.986;4.564;2023-09-07T13:28:06;4.43;;;2.08;;
44348;SDS011;30068;50.986;4.564;2023-09-07T13:30:31;4.32;;;1.92;;
44348;SDS011;30068;50.986;4.564;2023-09-07T13:32:57;4.15;;;2.03;;
44348;SDS011;30068;50.986;4.564;2023-09-07T13:35:22;4.72;;;2.00;;
44348;SDS011;30068;50.986;4.564;2023-09-07T13:37:48;5.57;;;2.00;;
44348;SDS011;30068;50.986;4.564;2023-09-07T13:40:13;5.10;;;2.45;;
44348;SDS011;30068;50.986;4.564;2023-09-07T13:42:40;4.72;;;2.13;;
44348;SDS011;30068;50.986;4.564;2023-09-07T13:45:08;4.05;;;2.03;;
44348;SDS011;30068;50.986;4.564;2023-09-07T13:47:33;4.05;;;1.80;;
44348;SDS011;30068;50.986;4.564;2023-09-07T13:49:59;4.10;;;2.28;;
44348;SDS011;30068;50.986;4.564;2023-09-07T13:52:24;4.00;;;2.10;;
44348;SDS011;30068;50.986;4.564;2023-09-07T13:54:51;7.07;;;2.30;;
44348;SDS011;30068;50.986;4.564;2023-09-07T13:57:16;5.13;;;2.17;;
44348;SDS011;30068;50.986;4.564;2023-09-07T13:59:42;4.45;;;2.22;;
44348;SDS011;30068;50.986;4.564;2023-09-07T14:02:07;4.55;;;2.13;;
44348;SDS011;30068;50.986;4.564;2023-09-07T14:04:32;5.22;;;2.13;;
44348;SDS011;30068;50.986;4.564;2023-09-07T14:06:58;4.25;;;2.15;;
44348;SDS011;30068;50.986;4.564;2023-09-07T14:09:23;4.35;;;2.30;;
44348;SDS011;30068;50.986;4.564;2023-09-07T14:11:49;4.22;;;2.13;;
44348;SDS011;30068;50.986;4.564;2023-09-07T14:14:14;4.35;;;2.10;;
44348;SDS011;30068;50.986;4.564;2023-09-07T14:16:41;5.32;;;2.30;;
44348;SDS011;30068;50.986;4.564;2023-09-07T14:19:06;4.75;;;2.15;;
44348;SDS011;30068;50.986;4.564;2023-09-07T14:21:32;4.22;;;2.10;;
44348;SDS011;30068;50.986;4.564;2023-09-07T14:23:57;4.32;;;2.40;;
44348;SDS011;30068;50.986;4.564;2023-09-07T14:26:23;4.72;;;2.10;;
44348;SDS011;30068;50.986;4.564;2023-09-07T14:28:48;5.43;;;2.35;;
44348;SDS011;30068;50.986;4.564;2023-09-07T14:31:13;4.95;;;2.40;;
44348;SDS011;30068;50.986;4.564;2023-09-07T14:33:39;4.15;;;2.08;;
44348;SDS011;30068;50.986;4.564;2023-09-07T14:36:07;3.92;;;1.95;;
44348;SDS011;30068;50.986;4.564;2023-09-07T14:38:34;5.95;;;2.33;;
44348;SDS011;30068;50.986;4.564;2023-09-07T14:41:05;4.68;;;2.17;;
44348;SDS011;30068;50.986;4.564;2023-09-07T14:43:31;4.38;;;2.20;;
44348;SDS011;30068;50.986;4.564;2023-09-07T14:45:57;4.70;;;2.30;;
44348;SDS011;30068;50.986;4.564;2023-09-07T14:48:22;3.90;;;1.88;;